createdAt,value
2022-09-25T03:00:36.493Z,13.85
2022-09-25T03:03:08.610Z,13.32
2022-09-25T03:05:38.000Z,13.68
2022-09-25T03:08:24.074Z,13.88
2022-09-25T03:10:51.924Z,14.13
2022-09-25T03:13:23.087Z,13.82
2022-09-25T03:15:58.786Z,13.90
2022-09-25T03:18:28.324Z,14.07
2022-09-25T03:20:56.251Z,13.50
2022-09-25T03:23:24.335Z,13.52
2022-09-25T03:25:55.048Z,13.57
2022-09-25T03:28:23.662Z,13.52
2022-09-25T03:31:01.036Z,13.30
2022-09-25T03:33:29.774Z,12.95
2022-09-25T03:36:06.148Z,12.93
2022-09-25T03:38:34.458Z,12.02
2022-09-25T03:41:02.922Z,10.65
2022-09-25T03:43:36.399Z,11.13
2022-09-25T03:46:06.211Z,11.18
2022-09-25T03:48:34.330Z,10.52
2022-09-25T03:51:02.158Z,9.90
2022-09-25T03:53:31.583Z,9.70
2022-09-25T03:55:59.844Z,9.85
2022-09-25T03:58:28.050Z,9.02
2022-09-25T04:00:57.284Z,8.40
2022-09-25T04:03:28.898Z,8.73
2022-09-25T04:05:57.669Z,8.23
2022-09-25T04:08:26.880Z,8.15
2022-09-25T04:10:56.170Z,8.63
2022-09-25T04:13:24.014Z,9.88
2022-09-25T04:15:52.069Z,10.52
2022-09-25T04:18:19.949Z,10.25
2022-09-25T04:20:49.548Z,9.98
2022-09-25T04:23:17.370Z,9.25
2022-09-25T04:25:45.793Z,8.90
2022-09-25T04:28:13.655Z,8.65
2022-09-25T04:30:41.626Z,8.48
2022-09-25T04:33:27.922Z,8.13
2022-09-25T04:35:57.309Z,8.52
2022-09-25T04:38:25.231Z,8.68
2022-09-25T04:40:53.098Z,8.90
2022-09-25T04:43:20.961Z,8.20
2022-09-25T04:45:48.855Z,8.00
2022-09-25T04:48:16.676Z,8.43
2022-09-25T04:50:51.447Z,8.18
2022-09-25T04:53:20.579Z,7.18
2022-09-25T04:55:48.397Z,7.97
2022-09-25T04:58:16.226Z,8.32
2022-09-25T05:00:44.267Z,7.95
2022-09-25T05:03:12.253Z,8.40
2022-09-25T05:05:40.182Z,7.95
2022-09-25T05:08:08.019Z,9.38
2022-09-25T05:10:39.514Z,10.27
2022-09-25T05:13:09.086Z,10.45
2022-09-25T05:15:37.204Z,10.70
2022-09-25T05:18:07.090Z,12.95
2022-09-25T05:20:36.943Z,13.15
2022-09-25T05:23:05.023Z,13.77
2022-09-25T05:25:33.544Z,14.00
2022-09-25T05:28:03.200Z,14.75
2022-09-25T05:30:33.520Z,15.25
2022-09-25T05:33:02.033Z,14.93
2022-09-25T05:35:31.632Z,14.40
2022-09-25T05:37:59.720Z,15.10
2022-09-25T05:40:27.633Z,14.85
2022-09-25T05:42:56.087Z,14.82
2022-09-25T05:45:25.278Z,15.07
2022-09-25T05:48:02.047Z,13.98
2022-09-25T05:50:30.115Z,14.23
2022-09-25T05:52:58.491Z,14.02
2022-09-25T05:55:26.688Z,13.95
2022-09-25T05:57:54.592Z,14.68
2022-09-25T06:00:22.388Z,13.55
2022-09-25T06:02:54.022Z,14.40
2022-09-25T06:05:21.874Z,14.27
2022-09-25T06:07:54.280Z,14.25
2022-09-25T06:10:22.349Z,14.75
2022-09-25T06:12:50.178Z,15.45
2022-09-25T06:15:17.989Z,15.75
2022-09-25T06:17:46.134Z,17.80
2022-09-25T06:20:16.429Z,15.32
2022-09-25T06:22:45.150Z,15.48
2022-09-25T06:25:15.322Z,14.15
2022-09-25T06:27:43.126Z,14.60
2022-09-25T06:30:11.779Z,14.23
2022-09-25T06:32:39.591Z,15.27
2022-09-25T06:35:07.740Z,13.68
2022-09-25T06:37:36.877Z,13.38
2022-09-25T06:40:05.255Z,14.50
2022-09-25T06:42:35.063Z,13.55
2022-09-25T06:45:02.944Z,12.77
2022-09-25T06:47:30.735Z,13.38
2022-09-25T06:49:58.539Z,12.68
2022-09-25T06:52:26.348Z,13.63
2022-09-25T06:54:55.574Z,13.05
2022-09-25T06:57:23.660Z,12.43
2022-09-25T06:59:51.831Z,11.77
2022-09-25T07:02:37.354Z,11.55
2022-09-25T07:05:05.971Z,10.35
2022-09-25T07:07:33.802Z,11.50
2022-09-25T07:10:03.121Z,11.48
2022-09-25T07:12:34.156Z,10.80
2022-09-25T07:15:01.990Z,10.98
2022-09-25T07:17:29.792Z,11.40
2022-09-25T07:19:57.665Z,11.32
2022-09-25T07:22:25.475Z,10.77
2022-09-25T07:24:53.363Z,10.52
2022-09-25T07:27:22.525Z,10.52
2022-09-25T07:29:50.351Z,9.27
2022-09-25T07:32:18.143Z,8.65
2022-09-25T07:34:46.178Z,9.00
2022-09-25T07:37:14.072Z,8.15
2022-09-25T07:39:41.898Z,8.60
2022-09-25T07:42:09.820Z,8.50
2022-09-25T07:44:41.626Z,8.65
2022-09-25T07:47:15.119Z,8.68
2022-09-25T07:49:42.964Z,8.73
2022-09-25T07:52:10.772Z,8.00
2022-09-25T07:54:38.622Z,8.60
2022-09-25T07:57:06.442Z,9.30
2022-09-25T07:59:34.265Z,9.05
2022-09-25T08:02:03.847Z,9.15
2022-09-25T08:04:31.734Z,9.57
2022-09-25T08:07:00.052Z,8.68
2022-09-25T08:09:28.010Z,8.50
2022-09-25T08:11:55.940Z,9.30
2022-09-25T08:14:27.024Z,9.38
2022-09-25T08:16:55.863Z,8.50
2022-09-25T08:19:25.167Z,8.73
2022-09-25T08:21:52.983Z,8.73
2022-09-25T08:24:20.835Z,10.07
2022-09-25T08:26:50.006Z,8.38
2022-09-25T08:29:18.406Z,8.80
2022-09-25T08:31:46.319Z,9.20
2022-09-25T08:34:39.397Z,8.70
2022-09-25T08:37:07.581Z,8.27
2022-09-25T08:39:39.526Z,8.95
2022-09-25T08:42:07.696Z,8.38
2022-09-25T08:44:39.527Z,8.30
2022-09-25T08:47:31.390Z,8.80
2022-09-25T08:50:06.418Z,9.25
2022-09-25T08:52:37.191Z,8.02
2022-09-25T08:55:09.947Z,9.50
2022-09-25T08:57:43.840Z,9.00
2022-09-25T09:00:19.692Z,8.60
2022-09-25T09:02:51.538Z,9.05
2022-09-25T09:05:25.702Z,9.20
2022-09-25T09:07:59.446Z,8.35
2022-09-25T09:10:36.028Z,8.45
2022-09-25T09:13:13.692Z,9.18
2022-09-25T09:15:45.160Z,9.18
2022-09-25T09:18:22.171Z,9.05
2022-09-25T09:20:53.805Z,8.52
2022-09-25T09:23:25.177Z,9.00
2022-09-25T09:26:01.730Z,8.80
2022-09-25T09:28:48.307Z,8.48
2022-09-25T09:31:23.902Z,8.98
2022-09-25T09:34:02.303Z,8.95
2022-09-25T09:36:39.260Z,9.38
2022-09-25T09:39:17.587Z,9.50
2022-09-25T09:41:55.526Z,8.80
2022-09-25T09:44:43.196Z,8.88
2022-09-25T09:47:23.519Z,9.57
2022-09-25T09:49:54.245Z,9.13
2022-09-25T09:52:24.170Z,9.63
2022-09-25T09:54:56.820Z,8.82
2022-09-25T09:57:28.005Z,9.05
2022-09-25T10:00:04.388Z,9.20
2022-09-25T10:02:41.999Z,9.18
2022-09-25T10:05:19.494Z,9.50
2022-09-25T10:07:49.117Z,9.63
2022-09-25T10:10:19.612Z,9.25
2022-09-25T10:12:50.846Z,8.88
2022-09-25T10:15:27.489Z,9.07
2022-09-25T10:17:57.734Z,8.85
2022-09-25T10:20:28.000Z,8.75
2022-09-25T10:22:57.206Z,9.00
2022-09-25T10:25:39.059Z,8.10
2022-09-25T10:28:23.656Z,7.88
2022-09-25T10:30:52.259Z,7.43
2022-09-25T10:33:23.202Z,7.55
2022-09-25T10:35:54.860Z,7.43
2022-09-25T10:38:33.048Z,6.65
2022-09-25T10:41:05.497Z,6.88
2022-09-25T10:43:33.365Z,6.35
2022-09-25T10:46:13.903Z,5.25
2022-09-25T10:49:00.293Z,6.03
2022-09-25T10:51:28.512Z,5.40
2022-09-25T10:54:13.030Z,4.88
2022-09-25T10:56:43.067Z,4.60
2022-09-25T10:59:18.173Z,4.63
2022-09-25T11:01:49.138Z,4.47
2022-09-25T11:04:21.066Z,5.10
2022-09-25T11:06:52.328Z,4.68
2022-09-25T11:09:23.424Z,4.28
2022-09-25T11:11:55.323Z,4.50
2022-09-25T11:14:28.625Z,4.00
2022-09-25T11:16:58.328Z,3.85
2022-09-25T11:19:29.457Z,5.88
2022-09-25T11:22:09.049Z,4.50
2022-09-25T11:24:47.008Z,4.38
2022-09-25T11:27:22.785Z,4.35
2022-09-25T11:30:01.530Z,4.30
2022-09-25T11:32:37.329Z,3.58
2022-09-25T11:35:34.577Z,3.00
2022-09-25T11:38:09.876Z,3.30
2022-09-25T11:41:20.427Z,3.25
2022-09-25T11:43:58.938Z,3.08
2022-09-25T11:46:35.333Z,3.28
2022-09-25T11:49:15.643Z,3.20
2022-09-25T11:52:06.952Z,3.15
2022-09-25T11:54:45.014Z,3.13
2022-09-25T11:57:18.218Z,3.00
2022-09-25T12:00:03.685Z,2.95
2022-09-25T12:02:53.637Z,2.60
2022-09-25T12:05:45.245Z,2.28
2022-09-25T12:08:29.846Z,2.30
2022-09-25T12:11:06.106Z,2.35
2022-09-25T12:13:44.650Z,11.07
2022-09-25T12:16:22.907Z,2.92
2022-09-25T12:19:10.736Z,2.20
2022-09-25T12:21:43.823Z,2.08
2022-09-25T12:24:23.643Z,1.90
2022-09-25T12:26:57.903Z,1.58
2022-09-25T12:29:38.677Z,1.70
2022-09-25T12:32:21.964Z,1.67
2022-09-25T12:35:05.157Z,2.20
2022-09-25T12:37:38.295Z,3.20
2022-09-25T12:40:16.277Z,2.00
2022-09-25T12:42:48.084Z,2.40
2022-09-25T12:45:22.783Z,6.95
2022-09-25T12:48:02.608Z,7.63
2022-09-25T12:50:34.369Z,4.65
2022-09-25T12:53:10.798Z,2.42
2022-09-25T12:55:43.857Z,2.67
2022-09-25T12:58:20.187Z,2.60
2022-09-25T13:00:51.508Z,2.25
2022-09-25T13:03:27.476Z,2.20
2022-09-25T13:06:06.891Z,2.00
2022-09-25T13:08:42.642Z,1.92
2022-09-25T13:11:15.575Z,2.00
2022-09-25T13:13:46.352Z,2.08
2022-09-25T13:16:16.275Z,3.10
2022-09-25T13:18:50.129Z,24.38
2022-09-25T13:21:26.893Z,9.45
2022-09-25T13:23:56.656Z,6.35
2022-09-25T13:26:27.248Z,3.80
2022-09-25T13:28:58.709Z,5.85
2022-09-25T13:31:28.814Z,6.50
2022-09-25T13:34:05.995Z,5.15
2022-09-25T13:36:46.378Z,4.60
2022-09-25T13:39:39.480Z,3.78
2022-09-25T13:42:14.922Z,2.70
2022-09-25T13:45:00.101Z,2.70
2022-09-25T13:47:53.309Z,2.85
2022-09-25T13:50:32.102Z,2.92
2022-09-25T13:53:26.255Z,2.97
2022-09-25T13:56:28.427Z,2.50
2022-09-25T13:59:27.914Z,2.20
2022-09-25T14:02:24.497Z,3.30
2022-09-25T14:04:53.039Z,2.30
2022-09-25T14:07:26.905Z,2.22
2022-09-25T14:09:58.152Z,2.13
2022-09-25T14:12:38.343Z,2.28
2022-09-25T14:15:13.177Z,2.20
2022-09-25T14:17:44.027Z,2.50
2022-09-25T14:20:31.123Z,2.25
2022-09-25T14:23:03.323Z,2.00
2022-09-25T14:25:36.335Z,2.28
2022-09-25T14:28:05.682Z,2.20
2022-09-25T14:30:33.588Z,2.40
2022-09-25T14:33:20.980Z,3.15
2022-09-25T14:35:59.558Z,2.53
2022-09-25T14:38:55.492Z,2.30
2022-09-25T14:42:08.466Z,2.58
2022-09-25T14:44:54.048Z,2.45
2022-09-25T14:47:23.644Z,2.38
2022-09-25T14:49:54.306Z,2.28
2022-09-25T14:52:25.429Z,2.50
2022-09-25T14:54:57.425Z,1.88
2022-09-25T14:57:27.750Z,1.83
2022-09-25T14:59:58.917Z,1.92
2022-09-25T15:02:34.165Z,2.30
2022-09-25T15:05:19.058Z,2.30
2022-09-25T15:07:47.716Z,1.98
2022-09-25T15:10:30.699Z,1.50
2022-09-25T15:13:09.691Z,1.55
2022-09-25T15:15:39.890Z,1.58
2022-09-25T15:18:13.430Z,1.63
2022-09-25T15:20:48.635Z,1.45
2022-09-25T15:23:19.260Z,1.70
2022-09-25T15:25:50.471Z,1.88
2022-09-25T15:28:21.114Z,1.95
2022-09-25T15:30:56.686Z,2.00
2022-09-25T15:33:26.434Z,1.80
2022-09-25T15:35:57.696Z,1.52
2022-09-25T15:38:33.673Z,1.67
2022-09-25T15:41:03.609Z,1.55
2022-09-25T15:43:31.640Z,1.40
2022-09-25T15:46:34.414Z,1.60
2022-09-25T15:49:15.983Z,1.80
2022-09-25T15:51:52.765Z,1.95
2022-09-25T15:54:39.464Z,2.03
2022-09-25T15:57:13.173Z,2.30
2022-09-25T16:00:04.062Z,1.55
2022-09-25T16:02:55.026Z,1.60
2022-09-25T16:05:30.387Z,1.83
2022-09-25T16:08:17.566Z,1.65
2022-09-25T16:10:50.163Z,1.77
2022-09-25T16:13:25.570Z,1.70
2022-09-25T16:15:54.495Z,1.60
2022-09-25T16:18:32.644Z,1.85
2022-09-25T16:21:15.489Z,3.20
2022-09-25T16:23:43.593Z,3.90
2022-09-25T16:26:22.223Z,2.90
2022-09-25T16:29:02.851Z,3.00
2022-09-25T16:31:32.362Z,2.33
2022-09-25T16:34:01.102Z,2.17
2022-09-25T16:36:37.906Z,2.60
2022-09-25T16:39:23.039Z,3.08
2022-09-25T16:41:51.297Z,3.10
2022-09-25T16:44:22.333Z,3.22
2022-09-25T16:47:17.817Z,2.53
2022-09-25T16:49:45.966Z,2.28
2022-09-25T16:52:24.547Z,2.20
2022-09-25T16:54:54.474Z,2.20
2022-09-25T16:57:23.339Z,2.38
2022-09-25T16:59:53.540Z,2.55
2022-09-25T17:02:32.710Z,2.58
2022-09-25T17:05:03.065Z,3.85
2022-09-25T17:07:30.918Z,3.10
2022-09-25T17:10:00.851Z,2.63
2022-09-25T17:12:30.582Z,2.88
2022-09-25T17:15:00.300Z,3.28
2022-09-25T17:17:29.648Z,3.40
2022-09-25T17:19:57.678Z,3.90
2022-09-25T17:22:29.994Z,3.42
2022-09-25T17:25:02.525Z,3.90
2022-09-25T17:27:30.362Z,3.30
2022-09-25T17:29:59.830Z,3.10
2022-09-25T17:32:29.268Z,3.90
2022-09-25T17:34:58.274Z,3.25
2022-09-25T17:37:26.099Z,3.35
2022-09-25T17:39:53.916Z,3.42
2022-09-25T17:42:21.845Z,3.60
2022-09-25T17:44:49.741Z,5.13
2022-09-25T17:47:21.532Z,6.20
2022-09-25T17:49:51.886Z,5.10
2022-09-25T17:52:21.898Z,4.20
2022-09-25T17:54:49.820Z,3.90
2022-09-25T17:57:17.673Z,3.40
2022-09-25T17:59:45.504Z,3.88
2022-09-25T18:02:18.420Z,3.83
2022-09-25T18:04:46.354Z,4.47
2022-09-25T18:07:15.181Z,4.40
2022-09-25T18:09:43.053Z,4.75
2022-09-25T18:12:10.856Z,4.65
2022-09-25T18:14:38.985Z,4.72
2022-09-25T18:17:06.796Z,5.43
2022-09-25T18:19:53.760Z,6.45
2022-09-25T18:22:25.222Z,6.40
2022-09-25T18:24:56.432Z,6.18
2022-09-25T18:27:26.628Z,4.85
2022-09-25T18:29:54.914Z,4.78
2022-09-25T18:32:23.977Z,4.88
2022-09-25T18:34:53.639Z,4.63
2022-09-25T18:37:24.251Z,5.05
2022-09-25T18:39:52.074Z,4.22
2022-09-25T18:42:19.942Z,4.75
2022-09-25T18:44:48.864Z,5.55
2022-09-25T18:47:16.803Z,5.43
2022-09-25T18:49:45.319Z,4.22
2022-09-25T18:52:15.699Z,4.32
2022-09-25T18:54:43.931Z,5.40
2022-09-25T18:57:13.082Z,4.93
2022-09-25T18:59:42.439Z,5.05
2022-09-25T19:02:20.428Z,5.47
2022-09-25T19:04:48.788Z,5.38
2022-09-25T19:07:18.106Z,5.00
2022-09-25T19:09:46.145Z,5.03
2022-09-25T19:12:17.078Z,4.72
2022-09-25T19:14:45.658Z,5.00
2022-09-25T19:17:14.447Z,5.03
2022-09-25T19:19:43.849Z,5.38
2022-09-25T19:22:16.125Z,5.75
2022-09-25T19:24:46.022Z,6.03
2022-09-25T19:27:15.888Z,6.32
2022-09-25T19:29:45.027Z,6.03
2022-09-25T19:32:14.792Z,6.13
2022-09-25T19:34:42.776Z,6.00
2022-09-25T19:37:11.372Z,6.05
2022-09-25T19:39:53.854Z,5.65
2022-09-25T19:42:23.255Z,5.47
2022-09-25T19:44:52.493Z,5.65
2022-09-25T19:47:20.339Z,5.10
2022-09-25T19:49:48.146Z,4.97
2022-09-25T19:52:16.926Z,5.15
2022-09-25T19:54:44.755Z,4.78
2022-09-25T19:57:12.671Z,4.05
2022-09-25T19:59:41.852Z,4.60
2022-09-25T20:02:10.805Z,4.95
2022-09-25T20:04:38.736Z,5.45
2022-09-25T20:07:06.808Z,5.50
2022-09-25T20:09:39.603Z,4.80
2022-09-25T20:12:07.862Z,5.07
2022-09-25T20:14:35.812Z,5.22
2022-09-25T20:17:09.558Z,4.97
2022-09-25T20:19:37.818Z,5.13
2022-09-25T20:22:05.813Z,5.80
2022-09-25T20:24:33.705Z,5.63
2022-09-25T20:27:01.514Z,5.03
2022-09-25T20:29:29.756Z,5.40
2022-09-25T20:31:57.559Z,6.32
2022-09-25T20:34:26.699Z,7.03
2022-09-25T20:36:54.537Z,6.53
2022-09-25T20:39:22.710Z,6.10
2022-09-25T20:41:50.890Z,5.50
2022-09-25T20:44:18.695Z,5.40
2022-09-25T20:46:46.504Z,5.10
2022-09-25T20:49:14.754Z,5.10
2022-09-25T20:51:43.896Z,4.72
2022-09-25T20:54:11.825Z,5.30
2022-09-25T20:56:43.563Z,5.25
2022-09-25T20:59:11.940Z,5.72
2022-09-25T21:01:40.918Z,5.68
2022-09-25T21:04:09.942Z,5.97
2022-09-25T21:06:39.930Z,6.03
2022-09-25T21:09:11.233Z,6.05
2022-09-25T21:11:40.332Z,5.75
2022-09-25T21:14:11.737Z,6.07
2022-09-25T21:16:39.628Z,6.30
2022-09-25T21:19:07.509Z,6.35
2022-09-25T21:21:35.371Z,6.43
2022-09-25T21:24:03.316Z,6.72
2022-09-25T21:26:33.947Z,6.10
2022-09-25T21:29:05.801Z,5.50
